sensor_id;sensor_type;location;lat;lon;timestamp;P1;durP1;ratioP1;P2;durP2;ratioP2
85291;SDS011;76128;47.194;14.662;2024-03-23T00:53:28;5.90;;;2.33;;
85291;SDS011;76128;47.194;14.662;2024-03-23T00:55:54;4.60;;;2.42;;
85291;SDS011;76128;47.194;14.662;2024-03-23T00:58:19;5.93;;;2.55;;
85291;SDS011;76128;47.194;14.662;2024-03-23T01:00:44;4.55;;;2.33;;
85291;SDS011;76128;47.194;14.662;2024-03-23T01:03:10;5.07;;;2.90;;
85291;SDS011;76128;47.194;14.662;2024-03-23T01:05:35;6.15;;;2.58;;
85291;SDS011;76128;47.194;14.662;2024-03-23T01:08:01;7.93;;;5.00;;
85291;SDS011;76128;47.194;14.662;2024-03-23T01:10:27;6.75;;;3.65;;
85291;SDS011;76128;47.194;14.662;2024-03-23T01:12:52;6.72;;;3.40;;
85291;SDS011;76128;47.194;14.662;2024-03-23T01:15:18;5.07;;;3.13;;
85291;SDS011;76128;47.194;14.662;2024-03-23T01:17:43;4.28;;;2.20;;
85291;SDS011;76128;47.194;14.662;2024-03-23T01:20:09;5.88;;;2.88;;
85291;SDS011;76128;47.194;14.662;2024-03-23T01:22:34;6.55;;;3.55;;
85291;SDS011;76128;47.194;14.662;2024-03-23T01:25:00;5.80;;;3.22;;
85291;SDS011;76128;47.194;14.662;2024-03-23T01:27:25;5.38;;;3.78;;
85291;SDS011;76128;47.194;14.662;2024-03-23T01:29:51;5.60;;;3.03;;
85291;SDS011;76128;47.194;14.662;2024-03-23T01:32:17;6.53;;;2.78;;
85291;SDS011;76128;47.194;14.662;2024-03-23T01:34:43;3.92;;;2.30;;
85291;SDS011;76128;47.194;14.662;2024-03-23T01:37:09;3.88;;;2.55;;
85291;SDS011;76128;47.194;14.662;2024-03-23T01:39:35;4.28;;;2.20;;
85291;SDS011;76128;47.194;14.662;2024-03-23T01:42:00;4.35;;;2.78;;
85291;SDS011;76128;47.194;14.662;2024-03-23T01:44:25;5.80;;;2.58;;
85291;SDS011;76128;47.194;14.662;2024-03-23T01:46:51;3.70;;;2.20;;
85291;SDS011;76128;47.194;14.662;2024-03-23T01:49:17;4.15;;;2.00;;
85291;SDS011;76128;47.194;14.662;2024-03-23T01:51:42;3.53;;;2.28;;
85291;SDS011;76128;47.194;14.662;2024-03-23T01:54:08;3.80;;;2.10;;
85291;SDS011;76128;47.194;14.662;2024-03-23T01:56:34;3.45;;;2.10;;
85291;SDS011;76128;47.194;14.662;2024-03-23T01:59:01;3.90;;;2.22;;
85291;SDS011;76128;47.194;14.662;2024-03-23T02:01:27;3.75;;;2.42;;
85291;SDS011;76128;47.194;14.662;2024-03-23T02:03:52;5.75;;;2.50;;
85291;SDS011;76128;47.194;14.662;2024-03-23T02:06:17;5.47;;;2.47;;
85291;SDS011;76128;47.194;14.662;2024-03-23T02:08:43;3.83;;;2.38;;
85291;SDS011;76128;47.194;14.662;2024-03-23T02:11:09;5.22;;;2.10;;
85291;SDS011;76128;47.194;14.662;2024-03-23T02:13:34;3.85;;;2.13;;
85291;SDS011;76128;47.194;14.662;2024-03-23T02:16:00;4.10;;;2.13;;
85291;SDS011;76128;47.194;14.662;2024-03-23T02:18:25;6.85;;;2.30;;
85291;SDS011;76128;47.194;14.662;2024-03-23T02:20:51;4.93;;;2.50;;
85291;SDS011;76128;47.194;14.662;2024-03-23T02:23:17;4.18;;;2.40;;
85291;SDS011;76128;47.194;14.662;2024-03-23T02:25:45;4.72;;;2.38;;
85291;SDS011;76128;47.194;14.662;2024-03-23T02:28:11;3.88;;;2.47;;
85291;SDS011;76128;47.194;14.662;2024-03-23T02:30:36;4.57;;;2.35;;
85291;SDS011;76128;47.194;14.662;2024-03-23T02:33:02;4.50;;;2.47;;
85291;SDS011;76128;47.194;14.662;2024-03-23T02:35:28;4.68;;;2.60;;
85291;SDS011;76128;47.194;14.662;2024-03-23T02:37:54;5.15;;;2.60;;
85291;SDS011;76128;47.194;14.662;2024-03-23T02:40:22;4.47;;;2.67;;
85291;SDS011;76128;47.194;14.662;2024-03-23T02:42:48;9.18;;;4.18;;
85291;SDS011;76128;47.194;14.662;2024-03-23T02:45:14;8.70;;;4.78;;
85291;SDS011;76128;47.194;14.662;2024-03-23T02:47:39;9.65;;;4.57;;
85291;SDS011;76128;47.194;14.662;2024-03-23T02:50:05;9.48;;;5.20;;
85291;SDS011;76128;47.194;14.662;2024-03-23T02:52:31;7.65;;;4.70;;
85291;SDS011;76128;47.194;14.662;2024-03-23T02:54:56;8.48;;;5.10;;
85291;SDS011;76128;47.194;14.662;2024-03-23T02:57:22;9.15;;;5.05;;
85291;SDS011;76128;47.194;14.662;2024-03-23T02:59:48;7.07;;;4.63;;
85291;SDS011;76128;47.194;14.662;2024-03-23T03:02:13;9.50;;;4.95;;
85291;SDS011;76128;47.194;14.662;2024-03-23T03:04:40;8.48;;;4.72;;
85291;SDS011;76128;47.194;14.662;2024-03-23T03:07:05;7.80;;;3.72;;
85291;SDS011;76128;47.194;14.662;2024-03-23T03:09:31;6.53;;;3.85;;
85291;SDS011;76128;47.194;14.662;2024-03-23T03:11:56;8.40;;;4.88;;
85291;SDS011;76128;47.194;14.662;2024-03-23T03:14:22;7.55;;;4.53;;
85291;SDS011;76128;47.194;14.662;2024-03-23T03:16:47;7.55;;;3.63;;
85291;SDS011;76128;47.194;14.662;2024-03-23T03:19:13;11.95;;;4.00;;
85291;SDS011;76128;47.194;14.662;2024-03-23T03:21:38;7.65;;;3.85;;
85291;SDS011;76128;47.194;14.662;2024-03-23T03:24:05;4.25;;;2.45;;
85291;SDS011;76128;47.194;14.662;2024-03-23T03:26:31;5.28;;;2.45;;
85291;SDS011;76128;47.194;14.662;2024-03-23T03:28:57;3.72;;;1.90;;
85291;SDS011;76128;47.194;14.662;2024-03-23T03:31:22;4.22;;;2.30;;
85291;SDS011;76128;47.194;14.662;2024-03-23T03:33:49;4.82;;;2.33;;
85291;SDS011;76128;47.194;14.662;2024-03-23T03:36:14;4.28;;;2.40;;
85291;SDS011;76128;47.194;14.662;2024-03-23T03:38:40;3.70;;;2.38;;
85291;SDS011;76128;47.194;14.662;2024-03-23T03:41:05;4.10;;;2.20;;
85291;SDS011;76128;47.194;14.662;2024-03-23T03:43:31;3.40;;;1.98;;
85291;SDS011;76128;47.194;14.662;2024-03-23T03:45:57;4.22;;;2.20;;
85291;SDS011;76128;47.194;14.662;2024-03-23T03:48:23;6.15;;;3.47;;
85291;SDS011;76128;47.194;14.662;2024-03-23T03:50:49;6.93;;;3.88;;
85291;SDS011;76128;47.194;14.662;2024-03-23T03:53:14;7.28;;;4.40;;
85291;SDS011;76128;47.194;14.662;2024-03-23T03:55:40;8.93;;;4.45;;
85291;SDS011;76128;47.194;14.662;2024-03-23T03:58:05;7.40;;;4.63;;
85291;SDS011;76128;47.194;14.662;2024-03-23T04:00:31;9.38;;;4.65;;
85291;SDS011;76128;47.194;14.662;2024-03-23T04:02:57;11.40;;;5.15;;
85291;SDS011;76128;47.194;14.662;2024-03-23T04:05:22;9.30;;;4.90;;
85291;SDS011;76128;47.194;14.662;2024-03-23T04:07:48;10.65;;;5.95;;
85291;SDS011;76128;47.194;14.662;2024-03-23T04:10:14;11.73;;;6.97;;
85291;SDS011;76128;47.194;14.662;2024-03-23T04:12:40;10.35;;;6.03;;
85291;SDS011;76128;47.194;14.662;2024-03-23T04:15:08;12.00;;;5.97;;
85291;SDS011;76128;47.194;14.662;2024-03-23T04:17:34;9.93;;;5.50;;
85291;SDS011;76128;47.194;14.662;2024-03-23T04:20:00;10.65;;;5.20;;
85291;SDS011;76128;47.194;14.662;2024-03-23T04:22:26;10.38;;;4.95;;
85291;SDS011;76128;47.194;14.662;2024-03-23T04:24:53;10.95;;;6.10;;
85291;SDS011;76128;47.194;14.662;2024-03-23T04:27:18;11.32;;;5.10;;
85291;SDS011;76128;47.194;14.662;2024-03-23T04:29:47;11.88;;;5.70;;
85291;SDS011;76128;47.194;14.662;2024-03-23T04:32:14;11.32;;;6.00;;
85291;SDS011;76128;47.194;14.662;2024-03-23T04:34:39;9.73;;;6.00;;
85291;SDS011;76128;47.194;14.662;2024-03-23T04:37:05;11.10;;;5.60;;
85291;SDS011;76128;47.194;14.662;2024-03-23T04:39:31;11.93;;;5.07;;
85291;SDS011;76128;47.194;14.662;2024-03-23T04:41:56;9.77;;;5.78;;
85291;SDS011;76128;47.194;14.662;2024-03-23T04:44:22;12.75;;;7.22;;
85291;SDS011;76128;47.194;14.662;2024-03-23T04:46:47;11.75;;;5.57;;
85291;SDS011;76128;47.194;14.662;2024-03-23T04:49:12;10.80;;;5.95;;
85291;SDS011;76128;47.194;14.662;2024-03-23T04:51:38;9.90;;;6.18;;
85291;SDS011;76128;47.194;14.662;2024-03-23T04:54:04;10.65;;;5.90;;
85291;SDS011;76128;47.194;14.662;2024-03-23T04:56:30;9.63;;;6.20;;
85291;SDS011;76128;47.194;14.662;2024-03-23T04:58:56;10.48;;;6.25;;
85291;SDS011;76128;47.194;14.662;2024-03-23T05:01:26;10.20;;;6.15;;
85291;SDS011;76128;47.194;14.662;2024-03-23T05:03:52;10.88;;;5.72;;
85291;SDS011;76128;47.194;14.662;2024-03-23T05:06:18;9.00;;;5.20;;
85291;SDS011;76128;47.194;14.662;2024-03-23T05:08:44;11.10;;;6.53;;
85291;SDS011;76128;47.194;14.662;2024-03-23T05:11:10;9.43;;;6.10;;
85291;SDS011;76128;47.194;14.662;2024-03-23T05:13:36;10.35;;;6.30;;
85291;SDS011;76128;47.194;14.662;2024-03-23T05:16:02;12.13;;;7.05;;
85291;SDS011;76128;47.194;14.662;2024-03-23T05:18:27;11.88;;;6.60;;
85291;SDS011;76128;47.194;14.662;2024-03-23T05:20:56;13.00;;;6.63;;
85291;SDS011;76128;47.194;14.662;2024-03-23T05:23:23;8.68;;;5.35;;
85291;SDS011;76128;47.194;14.662;2024-03-23T05:25:49;8.68;;;5.70;;
85291;SDS011;76128;47.194;14.662;2024-03-23T05:28:14;8.68;;;5.22;;
85291;SDS011;76128;47.194;14.662;2024-03-23T05:30:40;8.15;;;5.22;;
85291;SDS011;76128;47.194;14.662;2024-03-23T05:33:05;8.32;;;5.28;;
85291;SDS011;76128;47.194;14.662;2024-03-23T05:35:31;10.38;;;5.18;;
85291;SDS011;76128;47.194;14.662;2024-03-23T05:37:57;7.55;;;4.80;;
85291;SDS011;76128;47.194;14.662;2024-03-23T05:40:23;12.15;;;5.10;;
85291;SDS011;76128;47.194;14.662;2024-03-23T05:42:50;7.65;;;4.78;;
85291;SDS011;76128;47.194;14.662;2024-03-23T05:45:18;6.45;;;4.80;;
85291;SDS011;76128;47.194;14.662;2024-03-23T05:47:44;6.80;;;4.50;;
85291;SDS011;76128;47.194;14.662;2024-03-23T05:50:10;9.48;;;4.50;;
85291;SDS011;76128;47.194;14.662;2024-03-23T05:52:38;8.70;;;4.43;;
85291;SDS011;76128;47.194;14.662;2024-03-23T05:55:04;8.25;;;4.50;;
85291;SDS011;76128;47.194;14.662;2024-03-23T05:57:30;7.43;;;4.95;;
85291;SDS011;76128;47.194;14.662;2024-03-23T05:59:56;7.32;;;4.75;;
85291;SDS011;76128;47.194;14.662;2024-03-23T06:02:22;8.02;;;4.65;;
85291;SDS011;76128;47.194;14.662;2024-03-23T06:04:47;8.43;;;5.13;;
85291;SDS011;76128;47.194;14.662;2024-03-23T06:07:13;5.72;;;4.05;;
85291;SDS011;76128;47.194;14.662;2024-03-23T06:09:40;9.48;;;4.95;;
85291;SDS011;76128;47.194;14.662;2024-03-23T06:12:06;10.57;;;5.03;;
85291;SDS011;76128;47.194;14.662;2024-03-23T06:14:32;6.00;;;3.90;;
85291;SDS011;76128;47.194;14.662;2024-03-23T06:16:58;8.48;;;4.78;;
85291;SDS011;76128;47.194;14.662;2024-03-23T06:19:24;7.90;;;4.80;;
85291;SDS011;76128;47.194;14.662;2024-03-23T06:21:52;7.22;;;4.78;;
85291;SDS011;76128;47.194;14.662;2024-03-23T06:24:21;7.65;;;4.53;;
85291;SDS011;76128;47.194;14.662;2024-03-23T06:26:47;6.63;;;4.22;;
85291;SDS011;76128;47.194;14.662;2024-03-23T06:29:12;7.60;;;4.70;;
85291;SDS011;76128;47.194;14.662;2024-03-23T06:31:38;6.97;;;4.00;;
85291;SDS011;76128;47.194;14.662;2024-03-23T06:34:04;8.15;;;4.47;;
85291;SDS011;76128;47.194;14.662;2024-03-23T06:36:29;8.50;;;4.82;;
85291;SDS011;76128;47.194;14.662;2024-03-23T06:38:56;8.13;;;4.50;;
85291;SDS011;76128;47.194;14.662;2024-03-23T06:41:21;10.52;;;4.78;;
85291;SDS011;76128;47.194;14.662;2024-03-23T06:43:47;8.20;;;4.85;;
85291;SDS011;76128;47.194;14.662;2024-03-23T06:46:12;8.75;;;4.90;;
85291;SDS011;76128;47.194;14.662;2024-03-23T06:48:38;7.78;;;4.30;;
85291;SDS011;76128;47.194;14.662;2024-03-23T06:51:03;7.05;;;4.95;;
85291;SDS011;76128;47.194;14.662;2024-03-23T06:53:29;6.88;;;4.40;;
85291;SDS011;76128;47.194;14.662;2024-03-23T06:55:54;8.02;;;5.00;;
85291;SDS011;76128;47.194;14.662;2024-03-23T06:58:24;7.68;;;4.95;;
85291;SDS011;76128;47.194;14.662;2024-03-23T07:00:50;7.30;;;4.90;;
85291;SDS011;76128;47.194;14.662;2024-03-23T07:03:16;7.22;;;4.65;;
85291;SDS011;76128;47.194;14.662;2024-03-23T07:05:42;7.40;;;4.72;;
85291;SDS011;76128;47.194;14.662;2024-03-23T07:08:08;7.35;;;4.88;;
85291;SDS011;76128;47.194;14.662;2024-03-23T07:10:33;8.35;;;5.70;;
85291;SDS011;76128;47.194;14.662;2024-03-23T07:12:59;7.47;;;5.55;;
85291;SDS011;76128;47.194;14.662;2024-03-23T07:15:24;7.20;;;5.18;;
85291;SDS011;76128;47.194;14.662;2024-03-23T07:17:50;7.68;;;5.53;;
85291;SDS011;76128;47.194;14.662;2024-03-23T07:20:15;8.55;;;5.00;;
85291;SDS011;76128;47.194;14.662;2024-03-23T07:22:41;7.75;;;5.03;;
85291;SDS011;76128;47.194;14.662;2024-03-23T07:25:06;9.13;;;5.20;;
85291;SDS011;76128;47.194;14.662;2024-03-23T07:27:32;7.50;;;4.82;;
85291;SDS011;76128;47.194;14.662;2024-03-23T07:29:59;7.22;;;4.97;;
85291;SDS011;76128;47.194;14.662;2024-03-23T07:32:26;10.27;;;5.00;;
85291;SDS011;76128;47.194;14.662;2024-03-23T07:34:52;6.38;;;4.47;;
85291;SDS011;76128;47.194;14.662;2024-03-23T07:37:18;8.45;;;5.28;;
85291;SDS011;76128;47.194;14.662;2024-03-23T07:39:43;9.00;;;5.40;;
85291;SDS011;76128;47.194;14.662;2024-03-23T07:42:09;7.70;;;5.00;;
85291;SDS011;76128;47.194;14.662;2024-03-23T07:44:34;9.85;;;5.07;;
85291;SDS011;76128;47.194;14.662;2024-03-23T07:47:03;8.00;;;5.00;;
85291;SDS011;76128;47.194;14.662;2024-03-23T07:49:28;9.02;;;4.80;;
85291;SDS011;76128;47.194;14.662;2024-03-23T07:51:54;9.40;;;4.43;;
85291;SDS011;76128;47.194;14.662;2024-03-23T07:54:19;7.30;;;4.53;;
85291;SDS011;76128;47.194;14.662;2024-03-23T07:56:45;7.53;;;4.80;;
85291;SDS011;76128;47.194;14.662;2024-03-23T07:59:10;7.28;;;4.40;;
85291;SDS011;76128;47.194;14.662;2024-03-23T08:01:36;10.00;;;4.85;;
85291;SDS011;76128;47.194;14.662;2024-03-23T08:04:01;8.07;;;4.55;;
85291;SDS011;76128;47.194;14.662;2024-03-23T08:06:27;8.18;;;4.53;;
85291;SDS011;76128;47.194;14.662;2024-03-23T08:08:53;6.70;;;4.65;;
85291;SDS011;76128;47.194;14.662;2024-03-23T08:11:29;6.78;;;4.28;;
85291;SDS011;76128;47.194;14.662;2024-03-23T08:13:56;7.00;;;4.57;;
85291;SDS011;76128;47.194;14.662;2024-03-23T08:16:22;6.93;;;4.70;;
85291;SDS011;76128;47.194;14.662;2024-03-23T08:18:48;8.05;;;3.83;;
85291;SDS011;76128;47.194;14.662;2024-03-23T08:21:13;7.53;;;4.13;;
85291;SDS011;76128;47.194;14.662;2024-03-23T08:23:39;6.35;;;4.38;;
85291;SDS011;76128;47.194;14.662;2024-03-23T08:26:05;6.93;;;4.35;;
85291;SDS011;76128;47.194;14.662;2024-03-23T08:28:35;8.05;;;4.70;;
85291;SDS011;76128;47.194;14.662;2024-03-23T08:31:01;7.22;;;4.47;;
85291;SDS011;76128;47.194;14.662;2024-03-23T08:33:29;8.00;;;4.55;;
85291;SDS011;76128;47.194;14.662;2024-03-23T08:35:58;7.03;;;4.53;;
85291;SDS011;76128;47.194;14.662;2024-03-23T08:38:25;6.22;;;4.47;;
85291;SDS011;76128;47.194;14.662;2024-03-23T08:41:01;6.50;;;4.32;;
85291;SDS011;76128;47.194;14.662;2024-03-23T08:43:28;6.88;;;4.18;;
85291;SDS011;76128;47.194;14.662;2024-03-23T08:46:03;6.18;;;4.00;;
85291;SDS011;76128;47.194;14.662;2024-03-23T08:48:32;7.10;;;4.68;;
85291;SDS011;76128;47.194;14.662;2024-03-23T08:53:30;6.72;;;4.28;;
85291;SDS011;76128;47.194;14.662;2024-03-23T08:55:56;7.43;;;4.40;;
85291;SDS011;76128;47.194;14.662;2024-03-23T08:58:23;7.13;;;4.45;;
85291;SDS011;76128;47.194;14.662;2024-03-23T09:00:50;8.38;;;5.13;;
85291;SDS011;76128;47.194;14.662;2024-03-23T09:03:15;7.43;;;4.75;;
85291;SDS011;76128;47.194;14.662;2024-03-23T09:05:41;6.00;;;3.90;;
85291;SDS011;76128;47.194;14.662;2024-03-23T09:08:07;6.95;;;3.95;;
85291;SDS011;76128;47.194;14.662;2024-03-23T09:10:39;7.07;;;4.50;;
85291;SDS011;76128;47.194;14.662;2024-03-23T09:13:04;5.78;;;4.38;;
85291;SDS011;76128;47.194;14.662;2024-03-23T09:15:30;5.80;;;3.83;;
85291;SDS011;76128;47.194;14.662;2024-03-23T09:17:58;8.35;;;4.38;;
85291;SDS011;76128;47.194;14.662;2024-03-23T09:20:24;6.93;;;4.32;;
85291;SDS011;76128;47.194;14.662;2024-03-23T09:22:50;6.32;;;4.43;;
85291;SDS011;76128;47.194;14.662;2024-03-23T09:25:15;6.85;;;4.22;;
85291;SDS011;76128;47.194;14.662;2024-03-23T09:27:40;6.43;;;3.88;;
85291;SDS011;76128;47.194;14.662;2024-03-23T09:30:06;7.40;;;4.63;;
85291;SDS011;76128;47.194;14.662;2024-03-23T09:32:32;8.18;;;4.25;;
85291;SDS011;76128;47.194;14.662;2024-03-23T09:34:57;8.25;;;4.65;;
85291;SDS011;76128;47.194;14.662;2024-03-23T09:37:23;6.38;;;4.10;;
85291;SDS011;76128;47.194;14.662;2024-03-23T09:39:48;7.30;;;4.75;;
85291;SDS011;76128;47.194;14.662;2024-03-23T09:42:14;5.93;;;3.90;;
85291;SDS011;76128;47.194;14.662;2024-03-23T09:44:40;6.90;;;4.95;;
85291;SDS011;76128;47.194;14.662;2024-03-23T09:47:05;6.20;;;4.65;;
85291;SDS011;76128;47.194;14.662;2024-03-23T09:49:32;7.43;;;4.53;;
85291;SDS011;76128;47.194;14.662;2024-03-23T09:52:01;6.20;;;4.00;;
85291;SDS011;76128;47.194;14.662;2024-03-23T09:54:27;6.95;;;4.10;;
85291;SDS011;76128;47.194;14.662;2024-03-23T09:56:53;6.50;;;4.50;;
85291;SDS011;76128;47.194;14.662;2024-03-23T09:59:18;6.60;;;4.30;;
85291;SDS011;76128;47.194;14.662;2024-03-23T10:01:44;6.63;;;4.50;;
85291;SDS011;76128;47.194;14.662;2024-03-23T10:04:10;6.25;;;3.95;;
85291;SDS011;76128;47.194;14.662;2024-03-23T10:06:35;6.13;;;4.00;;
85291;SDS011;76128;47.194;14.662;2024-03-23T10:09:01;4.85;;;3.75;;
85291;SDS011;76128;47.194;14.662;2024-03-23T10:11:27;6.65;;;3.58;;
85291;SDS011;76128;47.194;14.662;2024-03-23T10:13:54;7.10;;;3.95;;
85291;SDS011;76128;47.194;14.662;2024-03-23T10:16:22;6.03;;;3.92;;
85291;SDS011;76128;47.194;14.662;2024-03-23T10:18:48;5.70;;;3.50;;
85291;SDS011;76128;47.194;14.662;2024-03-23T10:21:14;4.78;;;3.20;;
85291;SDS011;76128;47.194;14.662;2024-03-23T10:23:41;6.35;;;3.67;;
85291;SDS011;76128;47.194;14.662;2024-03-23T10:31:26;5.35;;;3.55;;
85291;SDS011;76128;47.194;14.662;2024-03-23T10:33:55;4.90;;;3.67;;
85291;SDS011;76128;47.194;14.662;2024-03-23T10:36:23;7.35;;;3.60;;
85291;SDS011;76128;47.194;14.662;2024-03-23T10:38:51;5.38;;;3.00;;
85291;SDS011;76128;47.194;14.662;2024-03-23T10:41:17;5.07;;;2.80;;
85291;SDS011;76128;47.194;14.662;2024-03-23T10:43:44;6.22;;;2.95;;
85291;SDS011;76128;47.194;14.662;2024-03-23T10:46:11;4.88;;;2.80;;
85291;SDS011;76128;47.194;14.662;2024-03-23T10:48:36;5.32;;;3.10;;
85291;SDS011;76128;47.194;14.662;2024-03-23T10:51:03;4.85;;;3.05;;
85291;SDS011;76128;47.194;14.662;2024-03-23T10:53:29;4.20;;;2.80;;
85291;SDS011;76128;47.194;14.662;2024-03-23T10:55:55;5.97;;;3.42;;
85291;SDS011;76128;47.194;14.662;2024-03-23T10:58:23;5.00;;;2.90;;
85291;SDS011;76128;47.194;14.662;2024-03-23T11:00:52;3.97;;;2.72;;
85291;SDS011;76128;47.194;14.662;2024-03-23T11:03:37;6.20;;;3.25;;
85291;SDS011;76128;47.194;14.662;2024-03-23T11:06:04;5.15;;;3.03;;
85291;SDS011;76128;47.194;14.662;2024-03-23T11:08:30;5.25;;;3.45;;
85291;SDS011;76128;47.194;14.662;2024-03-23T11:13:47;5.32;;;3.10;;
85291;SDS011;76128;47.194;14.662;2024-03-23T11:16:14;6.38;;;3.08;;
85291;SDS011;76128;47.194;14.662;2024-03-23T11:18:40;5.57;;;3.90;;
85291;SDS011;76128;47.194;14.662;2024-03-23T11:21:08;4.63;;;3.58;;
85291;SDS011;76128;47.194;14.662;2024-03-23T11:23:34;4.93;;;3.03;;
85291;SDS011;76128;47.194;14.662;2024-03-23T11:25:59;5.53;;;3.35;;
85291;SDS011;76128;47.194;14.662;2024-03-23T11:28:25;4.82;;;3.30;;
85291;SDS011;76128;47.194;14.662;2024-03-23T11:30:50;6.72;;;3.72;;
85291;SDS011;76128;47.194;14.662;2024-03-23T11:33:16;4.60;;;3.60;;
85291;SDS011;76128;47.194;14.662;2024-03-23T11:35:41;6.20;;;3.53;;
85291;SDS011;76128;47.194;14.662;2024-03-23T11:38:13;6.10;;;3.13;;
85291;SDS011;76128;47.194;14.662;2024-03-23T11:40:41;4.85;;;3.60;;
85291;SDS011;76128;47.194;14.662;2024-03-23T11:43:07;7.35;;;4.03;;
85291;SDS011;76128;47.194;14.662;2024-03-23T11:45:35;6.07;;;3.83;;
85291;SDS011;76128;47.194;14.662;2024-03-23T11:48:09;5.70;;;3.40;;
85291;SDS011;76128;47.194;14.662;2024-03-23T11:50:36;5.38;;;3.33;;
85291;SDS011;76128;47.194;14.662;2024-03-23T11:53:09;4.90;;;3.33;;
85291;SDS011;76128;47.194;14.662;2024-03-23T11:58:17;5.25;;;2.92;;
85291;SDS011;76128;47.194;14.662;2024-03-23T12:00:51;4.55;;;3.25;;
85291;SDS011;76128;47.194;14.662;2024-03-23T12:03:24;5.50;;;3.67;;
85291;SDS011;76128;47.194;14.662;2024-03-23T12:06:00;5.47;;;3.50;;
85291;SDS011;76128;47.194;14.662;2024-03-23T12:08:33;6.57;;;3.88;;
85291;SDS011;76128;47.194;14.662;2024-03-23T12:11:06;7.30;;;4.05;;
85291;SDS011;76128;47.194;14.662;2024-03-23T12:13:32;6.88;;;3.60;;
85291;SDS011;76128;47.194;14.662;2024-03-23T12:16:20;5.88;;;3.83;;
85291;SDS011;76128;47.194;14.662;2024-03-23T12:18:47;6.30;;;3.72;;
85291;SDS011;76128;47.194;14.662;2024-03-23T12:21:14;5.45;;;3.20;;
85291;SDS011;76128;47.194;14.662;2024-03-23T12:23:40;4.50;;;3.10;;
85291;SDS011;76128;47.194;14.662;2024-03-23T12:26:07;5.70;;;2.80;;
85291;SDS011;76128;47.194;14.662;2024-03-23T12:28:32;6.00;;;3.42;;
85291;SDS011;76128;47.194;14.662;2024-03-23T12:30:58;4.55;;;3.05;;
85291;SDS011;76128;47.194;14.662;2024-03-23T12:33:24;5.57;;;2.97;;
85291;SDS011;76128;47.194;14.662;2024-03-23T12:35:50;4.50;;;2.63;;
85291;SDS011;76128;47.194;14.662;2024-03-23T12:38:15;5.38;;;3.20;;
85291;SDS011;76128;47.194;14.662;2024-03-23T12:40:41;4.15;;;2.75;;
85291;SDS011;76128;47.194;14.662;2024-03-23T12:43:07;4.45;;;2.80;;
85291;SDS011;76128;47.194;14.662;2024-03-23T12:45:33;4.20;;;3.10;;
85291;SDS011;76128;47.194;14.662;2024-03-23T12:47:58;5.75;;;3.00;;
85291;SDS011;76128;47.194;14.662;2024-03-23T12:50:24;6.00;;;4.00;;
85291;SDS011;76128;47.194;14.662;2024-03-23T12:52:49;5.80;;;4.15;;
85291;SDS011;76128;47.194;14.662;2024-03-23T12:55:14;5.18;;;3.38;;
85291;SDS011;76128;47.194;14.662;2024-03-23T12:57:40;10.73;;;4.72;;
85291;SDS011;76128;47.194;14.662;2024-03-23T13:00:06;6.60;;;4.00;;
85291;SDS011;76128;47.194;14.662;2024-03-23T13:02:32;6.40;;;4.03;;
85291;SDS011;76128;47.194;14.662;2024-03-23T13:05:00;6.72;;;4.20;;
85291;SDS011;76128;47.194;14.662;2024-03-23T13:07:25;6.65;;;4.53;;
85291;SDS011;76128;47.194;14.662;2024-03-23T13:09:51;7.68;;;4.68;;
85291;SDS011;76128;47.194;14.662;2024-03-23T13:12:17;6.72;;;4.28;;
85291;SDS011;76128;47.194;14.662;2024-03-23T13:14:46;7.88;;;4.72;;
85291;SDS011;76128;47.194;14.662;2024-03-23T13:17:12;9.02;;;5.22;;
85291;SDS011;76128;47.194;14.662;2024-03-23T13:19:37;7.53;;;4.70;;
85291;SDS011;76128;47.194;14.662;2024-03-23T13:22:03;6.65;;;4.30;;
85291;SDS011;76128;47.194;14.662;2024-03-23T13:24:29;7.13;;;4.75;;
85291;SDS011;76128;47.194;14.662;2024-03-23T13:26:55;6.95;;;4.20;;
85291;SDS011;76128;47.194;14.662;2024-03-23T13:29:21;7.53;;;4.53;;
85291;SDS011;76128;47.194;14.662;2024-03-23T13:31:47;9.63;;;4.50;;
85291;SDS011;76128;47.194;14.662;2024-03-23T13:34:13;8.48;;;5.10;;
85291;SDS011;76128;47.194;14.662;2024-03-23T13:36:40;6.75;;;4.57;;
85291;SDS011;76128;47.194;14.662;2024-03-23T13:39:06;6.32;;;4.40;;
85291;SDS011;76128;47.194;14.662;2024-03-23T13:41:37;8.30;;;4.68;;
85291;SDS011;76128;47.194;14.662;2024-03-23T13:44:09;6.00;;;4.18;;
85291;SDS011;76128;47.194;14.662;2024-03-23T13:46:40;7.47;;;4.38;;
85291;SDS011;76128;47.194;14.662;2024-03-23T13:49:28;8.00;;;4.28;;
85291;SDS011;76128;47.194;14.662;2024-03-23T13:51:55;6.20;;;4.15;;
85291;SDS011;76128;47.194;14.662;2024-03-23T13:54:23;6.65;;;4.75;;
85291;SDS011;76128;47.194;14.662;2024-03-23T13:56:49;6.32;;;4.40;;
85291;SDS011;76128;47.194;14.662;2024-03-23T13:59:18;7.22;;;4.85;;
85291;SDS011;76128;47.194;14.662;2024-03-23T14:01:44;6.95;;;4.35;;
85291;SDS011;76128;47.194;14.662;2024-03-23T14:04:13;6.20;;;4.95;;
85291;SDS011;76128;47.194;14.662;2024-03-23T14:06:38;7.78;;;4.55;;
85291;SDS011;76128;47.194;14.662;2024-03-23T14:09:05;7.18;;;3.80;;
85291;SDS011;76128;47.194;14.662;2024-03-23T14:11:33;5.57;;;3.35;;
85291;SDS011;76128;47.194;14.662;2024-03-23T14:14:00;4.22;;;2.85;;
85291;SDS011;76128;47.194;14.662;2024-03-23T14:16:25;4.10;;;2.10;;
85291;SDS011;76128;47.194;14.662;2024-03-23T14:18:52;4.90;;;1.63;;
85291;SDS011;76128;47.194;14.662;2024-03-23T14:21:17;2.95;;;1.67;;
85291;SDS011;76128;47.194;14.662;2024-03-23T14:23:42;4.22;;;1.70;;
85291;SDS011;76128;47.194;14.662;2024-03-23T14:26:08;3.97;;;1.50;;
85291;SDS011;76128;47.194;14.662;2024-03-23T14:28:34;3.28;;;1.30;;
85291;SDS011;76128;47.194;14.662;2024-03-23T14:31:00;5.28;;;1.42;;
85291;SDS011;76128;47.194;14.662;2024-03-23T14:33:26;2.47;;;1.30;;
85291;SDS011;76128;47.194;14.662;2024-03-23T14:35:52;6.18;;;1.20;;
85291;SDS011;76128;47.194;14.662;2024-03-23T14:38:20;4.03;;;0.80;;
85291;SDS011;76128;47.194;14.662;2024-03-23T14:40:46;0.90;;;0.65;;
85291;SDS011;76128;47.194;14.662;2024-03-23T14:43:12;0.85;;;0.70;;
85291;SDS011;76128;47.194;14.662;2024-03-23T14:46:05;1.63;;;0.50;;
85291;SDS011;76128;47.194;14.662;2024-03-23T14:48:32;1.35;;;0.60;;
85291;SDS011;76128;47.194;14.662;2024-03-23T14:50:58;0.40;;;0.40;;
85291;SDS011;76128;47.194;14.662;2024-03-23T14:53:25;0.47;;;0.40;;
85291;SDS011;76128;47.194;14.662;2024-03-23T14:55:54;0.88;;;0.50;;
85291;SDS011;76128;47.194;14.662;2024-03-23T14:58:19;2.00;;;0.30;;
85291;SDS011;76128;47.194;14.662;2024-03-23T15:00:45;3.67;;;0.80;;
85291;SDS011;76128;47.194;14.662;2024-03-23T15:03:10;1.55;;;0.38;;
85291;SDS011;76128;47.194;14.662;2024-03-23T15:05:36;0.55;;;0.30;;
85291;SDS011;76128;47.194;14.662;2024-03-23T15:08:02;0.55;;;0.30;;
85291;SDS011;76128;47.194;14.662;2024-03-23T15:10:28;0.20;;;0.20;;
85291;SDS011;76128;47.194;14.662;2024-03-23T15:12:53;0.65;;;0.45;;
85291;SDS011;76128;47.194;14.662;2024-03-23T15:15:19;3.53;;;0.95;;
85291;SDS011;76128;47.194;14.662;2024-03-23T15:17:44;2.38;;;0.47;;
85291;SDS011;76128;47.194;14.662;2024-03-23T15:20:11;3.35;;;0.40;;
85291;SDS011;76128;47.194;14.662;2024-03-23T15:22:39;0.35;;;0.20;;
85291;SDS011;76128;47.194;14.662;2024-03-23T15:25:04;0.50;;;0.50;;
85291;SDS011;76128;47.194;14.662;2024-03-23T15:27:30;1.05;;;0.30;;
85291;SDS011;76128;47.194;14.662;2024-03-23T15:29:58;0.77;;;0.40;;
85291;SDS011;76128;47.194;14.662;2024-03-23T15:32:23;0.10;;;0.10;;
85291;SDS011;76128;47.194;14.662;2024-03-23T15:34:49;0.65;;;0.38;;